Time;durP1;ratioP1;P1;durP2;ratioP2;P2;SDS_P1;SDS_P2;PMS_P1;PMS_P2;Temp;Humidity;BMP_temperature;BMP_pressure;BME280_temperature;BME280_humidity;BME280_pressure;Samples;Min_cycle;Max_cycle;Signal;HPM_P1;HPM_P2
2024/04/02 00:04:21;;;;;;;0.63;0.63;;;;;;;;;;6115876;23;20198;-85
2024/04/02 00:06:48;;;;;;;0.77;0.60;;;;;;;;;;6099200;23;20196;-86
2024/04/02 00:43:15;;;;;;;1.30;0.83;;;;;;;;;;6117228;23;20237;-84
2024/04/02 00:45:41;;;;;;;0.90;0.70;;;;;;;;;;6091434;23;20166;-86
2024/04/02 00:48:09;;;;;;;0.87;0.80;;;;;;;;;;6119939;23;20151;-87
2024/04/02 00:50:53;;;;;;;1.10;0.70;;;5.30;99.90;;;;;;6118615;23;20170;-87
2024/04/02 01:04:22;;;;;;;0.80;0.80;;;;;;;;;;6117214;23;20158;-86
2024/04/02 01:06:52;;;;;;;1.00;0.90;;;;;;;;;;6092973;23;20259;-85
2024/04/02 01:12:07;;;;;;;1.00;0.90;;;;;;;;;;6118567;23;20167;-86
2024/04/02 01:14:33;;;;;;;1.07;0.83;;;;;;;;;;6125592;23;20152;-86
2024/04/02 01:17:03;;;;;;;1.63;0.80;;;;;;;;;;6088670;23;20191;-88
2024/04/02 01:19:29;;;;;;;1.20;0.90;;;;;;;;;;6091720;23;20195;-88
2024/04/02 01:27:56;;;;;;;1.27;1.00;;;;;;;;;;6091895;23;20194;-86
2024/04/02 01:30:22;;;;;;;0.97;0.90;;;;;;;;;;6113826;23;20567;-86
2024/04/02 01:32:53;;;;;;;1.70;1.00;;;;;;;;;;6110072;23;20163;-88
2024/04/02 01:35:19;;;;;;;1.27;1.00;;;;;;;;;;6126394;23;20139;-87
2024/04/02 01:40:33;;;;;;;1.03;0.80;;;;;;;;;;6113933;23;20202;-87
2024/04/02 01:43:14;;;;;;;1.23;0.90;;;;;;;;;;6113135;23;20155;-87
2024/04/02 01:45:45;;;;;;;1.10;0.70;;;;;;;;;;6090322;23;20345;-87
2024/04/02 01:48:19;;;;;;;1.90;1.00;;;;;;;;;;6087308;23;20170;-88
2024/04/02 01:53:32;;;;;;;1.20;0.90;;;;;;;;;;6124032;23;20162;-84
2024/04/02 01:55:59;;;;;;;0.80;0.80;;;;;;;;;;6123439;23;20210;-86
2024/04/02 02:15:35;;;;;;;0.70;0.70;;;;;;;;;;6105812;23;20181;-88
2024/04/02 02:18:01;;;;;;;1.70;0.80;;;;;;;;;;6082255;23;20246;-86
2024/04/02 02:20:29;;;;;;;0.83;0.80;;;;;;;;;;6080909;23;20194;-88
2024/04/02 02:23:03;;;;;;;1.00;0.80;;;;;;;;;;6082497;23;20246;-88
2024/04/02 02:25:39;;;;;;;0.90;0.70;;;;;;;;;;6086206;23;20162;-88
2024/04/02 02:28:05;;;;;;;1.00;0.90;;;;;;;;;;6119386;23;20207;-85
2024/04/02 02:30:35;;;;;;;1.23;0.90;;;;;;;;;;6100389;23;20174;-84
2024/04/02 02:33:04;;;;;;;2.23;1.10;;;;;;;;;;6101170;23;20159;-85
2024/04/02 02:38:34;;;;;;;1.40;0.90;;;;;;;;;;6080975;23;20174;-87
2024/04/02 02:41:06;;;;;;;2.37;1.03;;;;;;;;;;6112556;23;20214;-86
2024/04/02 02:49:15;;;;;;;0.90;0.90;;;;;;;;;;6121006;23;20153;-83
2024/04/02 02:51:41;;;;;;;0.77;0.77;;;;;;;;;;6101011;23;20190;-85
2024/04/02 02:59:43;;;;;;;1.40;1.00;;;;;;;;;;6086229;23;20191;-88
2024/04/02 03:02:11;;;;;;;1.70;1.00;;;;;;;;;;6087401;23;20195;-88
2024/04/02 03:12:53;;;;;;;1.93;0.83;;;;;;;;;;6108746;23;20170;-86
2024/04/02 03:15:24;;;;;;;1.03;0.80;;;;;;;;;;6088440;23;20170;-87
2024/04/02 03:20:43;;;;;;;0.97;0.87;;;;;;;;;;6110718;23;20195;-88
2024/04/02 03:23:10;;;;;;;1.10;0.80;;;;;;;;;;6086311;23;20243;-87
2024/04/02 03:34:01;;;;;;;0.73;0.70;;;;;;;;;;6109726;23;20175;-86
2024/04/02 03:36:30;;;;;;;1.57;0.90;;;;;;;;;;6084187;23;20210;-87
2024/04/02 03:39:00;;;;;;;0.97;0.80;;;;;;;;;;6111625;23;20254;-87
2024/04/02 04:05:28;;;;;;;0.73;0.60;;;;;;;;;;6111105;23;20199;-86
2024/04/02 04:17:00;;;;;;;0.93;0.70;;;;;;;;;;6112208;23;20194;-87
2024/04/02 04:19:26;;;;;;;0.77;0.77;;;;;;;;;;6090903;23;20251;-86
2024/04/02 04:24:44;;;;;;;1.73;0.67;;;;;;;;;;6110282;23;20523;-86
2024/04/02 04:27:11;;;;;;;1.27;0.80;;;;;;;;;;6113674;23;20217;-86
2024/04/02 04:35:32;;;;;;;0.60;0.60;;;;;;;;;;6111939;23;20190;-87
2024/04/02 04:38:08;;;;;;;0.83;0.80;;;;;;;;;;6088775;23;20174;-87
2024/04/02 04:49:14;;;;;;;0.70;0.70;;;;;;;;;;6107844;23;20221;-87
2024/04/02 04:51:52;;;;;;;1.50;0.80;;;;;;;;;;6087099;23;20263;-86
2024/04/02 05:08:13;;;;;;;4.13;0.83;;;;;;;;;;6120618;23;20515;-82
2024/04/02 05:11:03;;;;;;;2.27;0.80;;;;;;;;;;6114947;23;20190;-86
2024/04/02 05:24:43;;;;;;;1.63;1.23;;;;;;;;;;6114223;23;20170;-84
2024/04/02 05:27:10;;;;;;;0.70;0.70;;;;;;;;;;6122368;23;20194;-86
2024/04/02 05:46:12;;;;;;;0.90;0.70;;;;;;;;;;6121119;23;20255;-87
2024/04/02 05:48:53;;;;;;;0.77;0.60;;;;;;;;;;6146581;23;20171;-87
2024/04/02 06:00:58;;;;;;;1.17;0.90;;;8.00;99.90;;;;;;6116222;23;20194;-84
2024/04/02 07:05:22;;;;;;;0.40;0.40;;;9.10;99.90;;;;;;6084665;23;20194;-86
2024/04/02 07:08:24;;;;;;;0.40;0.40;;;9.10;99.90;;;;;;6087725;23;20178;-86
2024/04/02 07:11:07;;;;;;;0.43;0.43;;;;;;;;;;6086080;23;20177;-87
2024/04/02 07:16:59;;;;;;;0.30;0.30;;;;;;;;;;6114269;23;20190;-87
2024/04/02 07:19:40;;;;;;;0.83;0.50;;;;;;;;;;6112446;23;20175;-83
2024/04/02 08:08:46;;;;;;;1.67;0.80;;;;;;;;;;6086968;23;20209;-85
2024/04/02 08:11:12;;;;;;;1.17;0.70;;;;;;;;;;6093414;23;20179;-86
2024/04/02 08:25:19;;;;;;;1.53;0.70;;;;;;;;;;6133608;23;20464;-87
2024/04/02 08:27:52;;;;;;;1.83;1.00;;;;;;;;;;6101825;23;20589;-89
2024/04/02 09:04:56;;;;;;;1.47;0.80;;;11.50;99.90;;;;;;6112354;23;20220;-90
2024/04/02 09:07:25;;;;;;;3.17;1.00;;;;;;;;;;6115170;23;20198;-88
2024/04/02 09:12:35;;;;;;;2.80;0.87;;;;;;;;;;6118371;23;20170;-84
2024/04/02 09:15:02;;;;;;;1.30;0.70;;;;;;;;;;6122324;23;20182;-87
2024/04/02 09:27:03;;;;;;;2.60;0.50;;;;;;;;;;6100447;23;20198;-84
2024/04/02 09:29:31;;;;;;;2.03;0.90;;;;;;;;;;6139821;23;20213;-88
2024/04/02 10:19:10;;;;;;;1.63;0.70;;;;;;;;;;6142657;23;20277;-86
2024/04/02 10:21:51;;;;;;;2.80;1.00;;;;;;;;;;6126034;23;20208;-86
2024/04/02 10:54:01;;;;;;;2.57;0.90;;;;;;;;;;6080466;23;20179;-84
2024/04/02 10:56:28;;;;;;;2.87;0.97;;;;;;;;;;6107141;23;20163;-87
2024/04/02 11:10:03;;;;;;;4.63;0.80;;;;;;;;;;6109933;23;20193;-84
2024/04/02 11:12:29;;;;;;;2.33;0.70;;;;;;;;;;6107027;23;20171;-87
2024/04/02 11:14:58;;;;;;;2.53;0.77;;;;;;;;;;6108292;23;20167;-88
2024/04/02 11:17:25;;;;;;;1.63;0.52;;;;;;;;;;6109497;23;20191;-86
2024/04/02 11:26:29;;;;;;;1.02;0.65;;;14.90;99.90;;;;;;6049025;23;20569;-87
2024/04/02 11:29:23;;;;;;;4.00;0.90;;;;;;;;;;6026431;23;20176;-89
2024/04/02 11:31:53;;;;;;;2.65;0.80;;;;;;;;;;6078385;23;20170;-85
2024/04/02 12:17:01;;;;;;;2.35;1.08;;;;;;;;;;6092168;23;20214;-86
2024/04/02 12:19:38;;;;;;;2.88;0.82;;;;;;;;;;6113447;23;20151;-87
2024/04/02 12:22:11;;;;;;;1.10;0.55;;;;;;;;;;6083723;23;20166;-86
2024/04/02 12:24:38;;;;;;;1.00;0.73;;;;;;;;;;6112109;23;20198;-90
2024/04/02 12:46:05;;;;;;;1.38;0.70;;;;;;;;;;6093171;23;20302;-87
2024/04/02 12:48:32;;;;;;;3.47;0.70;;;;;;;;;;6113341;23;20193;-88
2024/04/02 13:04:39;;;;;;;2.40;0.60;;;;;;;;;;6112700;23;20621;-85
2024/04/02 13:07:40;;;;;;;1.00;0.70;;;13.80;99.90;;;;;;6113067;23;20720;-86
2024/04/02 13:13:07;;;;;;;1.10;0.65;;;;;;;;;;6124821;23;20151;-85
2024/04/02 13:15:33;;;;;;;0.40;0.40;;;;;;;;;;6120366;23;20155;-87
2024/04/02 13:20:42;;;;;;;1.10;0.65;;;;;;;;;;6083797;23;20224;-87
2024/04/02 13:23:10;;;;;;;1.10;0.60;;;;;;;;;;6108225;23;20173;-87
2024/04/02 13:25:51;;;;;;;1.27;0.70;;;;;;;;;;6108798;23;20262;-88
2024/04/02 13:28:17;;;;;;;5.15;0.70;;;16.80;99.90;;;;;;6109956;23;20187;-87
2024/04/02 13:30:48;;;;;;;1.58;0.73;;;;;;;;;;6112149;23;20254;-87
2024/04/02 13:33:16;;;;;;;1.73;0.75;;;;;;;;;;6107285;23;20163;-87
2024/04/02 13:35:43;;;;;;;0.55;0.50;;;;;;;;;;6106416;23;20171;-88
2024/04/02 13:38:12;;;;;;;0.73;0.73;;;;;;;;;;6112919;23;20190;-88
2024/04/02 13:46:37;;;;;;;2.17;1.00;;;;;;;;;;6116662;23;20238;-77
2024/04/02 13:49:05;;;;;;;0.68;0.50;;;;;;;;;;6151354;23;20615;-76
2024/04/02 13:51:32;;;;;;;0.70;0.50;;;;;;;;;;6155539;23;20167;-76
2024/04/02 13:53:58;;;;;;;0.75;0.57;;;;;;;;;;6155401;23;20150;-78
2024/04/02 13:56:25;;;;;;;2.22;0.70;;;;;;;;;;6155713;23;20209;-77
2024/04/02 13:58:53;;;;;;;0.80;0.60;;;15.50;96.50;;;;;;6121369;23;20170;-77
2024/04/02 14:01:20;;;;;;;2.10;0.45;;;;;;;;;;6149522;23;20184;-78
2024/04/02 14:03:46;;;;;;;0.57;0.50;;;;;;;;;;6153763;23;20158;-77
2024/04/02 14:06:15;;;;;;;1.23;0.80;;;;;;;;;;6154346;23;20166;-77
2024/04/02 14:08:41;;;;;;;2.10;0.50;;;;;;;;;;6153087;23;20190;-77
2024/04/02 14:11:15;;;;;;;1.17;0.68;;;19.00;91.30;;;;;;6151697;23;20194;-78
2024/04/02 14:13:42;;;;;;;0.65;0.40;;;;;;;;;;6149335;23;20154;-77
2024/04/02 14:16:15;;;;;;;5.40;0.85;;;;;;;;;;6152996;23;20163;-77
2024/04/02 14:18:42;;;;;;;2.22;0.68;;;18.40;94.00;;;;;;6153239;23;20189;-77
2024/04/02 14:21:12;;;;;;;1.20;0.60;;;;;;;;;;6153960;23;20628;-78
2024/04/02 14:23:38;;;;;;;1.13;0.50;;;;;;;;;;6128582;23;20158;-78
2024/04/02 14:26:06;;;;;;;0.38;0.30;;;21.10;90.10;;;;;;6154770;23;20186;-77
2024/04/02 14:28:33;;;;;;;2.40;0.40;;;;;;;;;;6153837;23;20222;-76
2024/04/02 14:31:04;;;;;;;1.15;0.50;;;19.80;85.50;;;;;;6153354;23;20182;-77
2024/04/02 14:33:31;;;;;;;0.68;0.52;;;;;;;;;;6128292;23;20198;-76
2024/04/02 14:35:59;;;;;;;0.73;0.57;;;;;;;;;;6126115;23;20178;-77
2024/04/02 14:38:25;;;;;;;1.35;0.63;;;;;;;;;;6152703;23;20186;-76
2024/04/02 14:41:00;;;;;;;0.63;0.52;;;16.40;94.20;;;;;;6152486;23;20190;-76
2024/04/02 14:43:27;;;;;;;0.73;0.50;;;;;;;;;;6153743;23;20134;-76
2024/04/02 14:45:54;;;;;;;1.27;0.63;;;;;;;;;;6152962;23;20177;-76
2024/04/02 14:48:20;;;;;;;0.52;0.50;;;;;;;;;;6152402;23;20267;-76
2024/04/02 14:50:50;;;;;;;0.47;0.40;;;;;;;;;;6151834;23;20170;-77
2024/04/02 14:53:17;;;;;;;0.93;0.68;;;;;;;;;;6154178;23;20162;-75
2024/04/02 14:55:53;;;;;;;0.73;0.50;;;;;;;;;;6153315;23;20142;-77
2024/04/02 14:58:19;;;;;;;0.57;0.50;;;;;;;;;;6154070;23;20181;-78
2024/04/02 15:00:46;;;;;;;1.02;0.50;;;;;;;;;;6153161;23;20186;-76
2024/04/02 15:03:13;;;;;;;1.58;0.50;;;19.10;87.10;;;;;;6151471;23;20170;-76
2024/04/02 15:05:40;;;;;;;2.15;0.43;;;;;;;;;;6151900;23;20166;-76
2024/04/02 15:08:08;;;;;;;0.50;0.45;;;;;;;;;;6152564;23;20217;-77
2024/04/02 15:10:35;;;;;;;0.65;0.32;;;19.90;83.70;;;;;;6124668;23;20181;-77
2024/04/02 15:13:02;;;;;;;3.60;0.50;;;;;;;;;;6150335;23;20162;-79
2024/04/02 15:15:29;;;;;;;0.77;0.63;;;;;;;;;;6126045;23;20174;-76
2024/04/02 15:17:57;;;;;;;1.50;0.60;;;;;;;;;;6151764;23;20162;-76
2024/04/02 15:20:24;;;;;;;0.65;0.50;;;;;;;;;;6151687;23;20193;-76
2024/04/02 15:22:50;;;;;;;1.10;0.55;;;;;;;;;;6122030;23;20184;-76
2024/04/02 15:25:19;;;;;;;2.92;0.80;;;;;;;;;;6151185;23;20146;-76
2024/04/02 15:27:46;;;;;;;1.58;0.90;;;;;;;;;;6151209;23;20226;-76
2024/04/02 15:30:13;;;;;;;1.45;0.80;;;;;;;;;;6149390;23;20182;-77
2024/04/02 15:32:43;;;;;;;0.55;0.52;;;;;;;;;;6151594;23;20167;-76
2024/04/02 15:35:11;;;;;;;1.25;0.75;;;;;;;;;;6148080;23;20138;-76
2024/04/02 15:37:37;;;;;;;2.55;0.80;;;;;;;;;;6151886;23;20197;-77
2024/04/02 15:40:06;;;;;;;1.63;0.55;;;13.80;97.90;;;;;;6152951;23;20194;-77
2024/04/02 15:42:34;;;;;;;1.30;0.60;;;13.80;98.80;;;;;;6145861;23;20249;-77
2024/04/02 15:45:01;;;;;;;1.00;0.50;;;;;;;;;;6147457;23;20229;-77
2024/04/02 15:47:27;;;;;;;0.70;0.50;;;13.90;98.30;;;;;;6146042;23;20174;-77
2024/04/02 15:49:54;;;;;;;1.00;0.50;;;14.10;99.30;;;;;;6144640;23;20182;-76
2024/04/02 15:52:20;;;;;;;0.95;0.47;;;;;;;;;;6118919;23;20170;-76
2024/04/02 15:54:48;;;;;;;1.02;0.65;;;14.10;99.50;;;;;;6148173;23;20182;-77
2024/04/02 15:57:14;;;;;;;2.83;0.63;;;13.70;99.90;;;;;;6151285;23;20159;-75
2024/04/02 15:59:43;;;;;;;1.70;0.77;;;;;;;;;;6151941;23;20166;-76
2024/04/02 16:02:09;;;;;;;1.00;0.67;;;;;;;;;;6153644;23;20174;-76
2024/04/02 16:04:36;;;;;;;0.77;0.50;;;;;;;;;;6154234;23;20160;-77
2024/04/02 16:07:03;;;;;;;1.20;0.73;;;;;;;;;;6153903;23;20199;-76
2024/04/02 16:09:32;;;;;;;10.53;6.87;;;;;;;;;;6128328;23;20186;-77
2024/04/02 16:11:58;;;;;;;7.33;3.53;;;;;;;;;;6153532;23;20210;-77
2024/04/02 16:14:26;;;;;;;2.27;1.80;;;13.60;99.90;;;;;;6153705;23;20146;-76
2024/04/02 16:16:53;;;;;;;18.00;11.33;;;13.40;99.90;;;;;;6153775;23;20162;-76
2024/04/02 16:19:20;;;;;;;6.63;3.90;;;14.00;99.90;;;;;;6152965;23;20181;-77
2024/04/02 16:21:47;;;;;;;6.77;3.83;;;13.50;99.90;;;;;;6128305;23;20249;-76
2024/04/02 16:24:15;;;;;;;5.33;3.10;;;;;;;;;;6151711;23;20149;-77
2024/04/02 16:26:42;;;;;;;3.27;1.63;;;13.20;99.90;;;;;;6154140;23;20150;-76
2024/04/02 16:29:09;;;;;;;1.00;1.00;;;13.40;99.90;;;;;;6128851;23;20162;-77
2024/04/02 16:31:36;;;;;;;1.20;0.90;;;;;;;;;;6153882;23;20198;-77
2024/04/02 16:34:04;;;;;;;1.00;0.80;;;;;;;;;;6154064;23;20177;-77
2024/04/02 16:36:30;;;;;;;1.00;0.60;;;13.30;99.90;;;;;;6150861;23;20158;-76
2024/04/02 16:38:58;;;;;;;1.67;0.63;;;;;;;;;;6149797;23;20162;-76
2024/04/02 16:41:24;;;;;;;1.63;0.70;;;;;;;;;;6150175;23;20193;-77
2024/04/02 16:43:54;;;;;;;1.67;0.80;;;13.60;99.90;;;;;;6146100;23;20162;-76
2024/04/02 16:46:21;;;;;;;2.00;0.70;;;;;;;;;;6145885;23;20158;-77
2024/04/02 16:48:48;;;;;;;1.07;0.63;;;;;;;;;;6119925;23;20181;-76
2024/04/02 16:51:15;;;;;;;1.77;0.70;;;;;;;;;;6147600;23;20182;-76
2024/04/02 16:53:43;;;;;;;2.13;0.63;;;;;;;;;;6147199;23;20154;-76
2024/04/02 16:56:11;;;;;;;1.17;0.77;;;13.50;99.90;;;;;;6150119;23;20166;-76
2024/04/02 16:58:38;;;;;;;2.13;0.60;;;;;;;;;;6149989;23;20173;-76
2024/04/02 17:01:06;;;;;;;1.60;0.90;;;13.30;99.90;;;;;;6112899;23;20212;-77
2024/04/02 17:03:37;;;;;;;1.30;0.93;;;;;;;;;;6142550;23;20166;-76
2024/04/02 17:06:09;;;;;;;2.87;1.10;;;;;;;;;;6143665;23;20154;-75
2024/04/02 17:08:38;;;;;;;1.60;0.90;;;;;;;;;;6122448;23;20174;-76
2024/04/02 17:11:06;;;;;;;2.00;0.93;;;13.00;99.90;;;;;;6142715;23;20247;-77
2024/04/02 17:16:18;;;;;;;1.53;0.87;;;13.00;99.90;;;;;;6143433;23;20213;-75
2024/04/02 17:18:44;;;;;;;1.20;0.80;;;;;;;;;;6145631;23;20162;-77
2024/04/02 17:21:12;;;;;;;1.67;0.90;;;;;;;;;;6148758;23;20190;-75
2024/04/02 17:23:39;;;;;;;2.03;1.07;;;12.90;99.90;;;;;;6149213;23;20245;-76
2024/04/02 17:26:07;;;;;;;1.83;0.90;;;12.70;99.90;;;;;;6147467;23;20172;-76
2024/04/02 17:28:33;;;;;;;2.47;0.73;;;;;;;;;;6147918;23;20176;-75
2024/04/02 17:31:01;;;;;;;1.60;0.80;;;;;;;;;;6149538;23;20193;-75
2024/04/02 17:33:28;;;;;;;1.80;0.90;;;12.60;99.90;;;;;;6141975;23;20174;-76
2024/04/02 17:35:58;;;;;;;2.13;0.83;;;12.50;99.90;;;;;;6118534;23;20201;-77
2024/04/02 17:38:25;;;;;;;3.20;1.30;;;;;;;;;;6143220;23;20176;-77
2024/04/02 17:40:54;;;;;;;3.33;0.90;;;;;;;;;;6147879;23;20189;-76
2024/04/02 17:43:20;;;;;;;2.37;0.87;;;;;;;;;;6143697;23;20200;-77
2024/04/02 17:45:51;;;;;;;3.03;1.00;;;;;;;;;;6142980;23;20174;-76
2024/04/02 17:48:18;;;;;;;2.20;0.90;;;;;;;;;;6149509;23;20221;-76
2024/04/02 17:50:45;;;;;;;2.97;0.77;;;;;;;;;;6146386;23;20182;-78
2024/04/02 17:53:11;;;;;;;1.90;1.03;;;;;;;;;;6150003;23;20174;-76
2024/04/02 17:55:39;;;;;;;3.60;1.10;;;;;;;;;;6121932;23;20178;-76
2024/04/02 17:58:06;;;;;;;2.67;1.10;;;11.80;99.90;;;;;;6143277;23;20249;-76
2024/04/02 18:00:33;;;;;;;4.33;1.47;;;11.50;99.90;;;;;;6120637;23;20181;-75
2024/04/02 18:02:59;;;;;;;4.40;1.23;;;11.30;99.90;;;;;;6154952;23;20184;-76
2024/04/02 18:05:26;;;;;;;3.37;1.20;;;11.10;99.90;;;;;;6153907;23;20150;-77
2024/04/02 18:07:53;;;;;;;2.60;1.10;;;;;;;;;;6141632;23;20173;-76
2024/04/02 18:10:20;;;;;;;2.77;1.10;;;11.10;99.90;;;;;;6145127;23;20651;-77
2024/04/02 18:12:46;;;;;;;6.07;4.07;;;11.10;99.90;;;;;;6114482;23;20174;-77
2024/04/02 18:15:24;;;;;;;3.47;1.93;;;10.80;99.90;;;;;;6143327;23;20182;-76
2024/04/02 18:17:50;;;;;;;2.53;1.27;;;;;;;;;;6140292;23;20180;-76
2024/04/02 18:20:18;;;;;;;4.77;1.80;;;;;;;;;;6143813;23;20181;-76
2024/04/02 18:22:43;;;;;;;3.83;1.27;;;10.00;99.90;;;;;;6139972;23;20245;-76
2024/04/02 18:25:11;;;;;;;4.40;1.57;;;9.80;99.90;;;;;;6149811;23;20143;-75
2024/04/02 18:27:38;;;;;;;3.87;1.20;;;;;;;;;;6154732;23;20181;-76
2024/04/02 18:30:06;;;;;;;3.73;1.20;;;;;;;;;;6150029;23;20192;-76
2024/04/02 18:32:33;;;;;;;1.40;1.00;;;;;;;;;;6135131;23;20201;-87
2024/04/02 18:35:03;;;;;;;2.90;1.20;;;;;;;;;;6137696;23;20173;-86
2024/04/02 18:37:29;;;;;;;2.23;1.10;;;;;;;;;;6145310;23;20154;-86
2024/04/02 18:40:01;;;;;;;1.97;1.00;;;;;;;;;;6129602;23;20174;-87
2024/04/02 18:42:27;;;;;;;2.17;1.17;;;;;;;;;;6127048;23;20205;-87
2024/04/02 18:47:47;;;;;;;1.97;0.90;;;;;;;;;;6146293;23;20169;-86
2024/04/02 18:50:14;;;;;;;3.30;1.40;;;;;;;;;;6137250;23;20189;-85
2024/04/02 18:58:14;;;;;;;4.17;1.40;;;;;;;;;;6134999;23;20249;-85
2024/04/02 19:00:41;;;;;;;2.60;1.13;;;;;;;;;;6119567;23;20177;-86
2024/04/02 19:03:13;;;;;;;2.97;1.20;;;;;;;;;;6137105;23;20190;-87
2024/04/02 19:05:39;;;;;;;3.03;1.50;;;;;;;;;;6110456;23;20171;-85
2024/04/02 19:08:12;;;;;;;2.23;1.27;;;;;;;;;;6135948;23;20169;-86
2024/04/02 19:10:39;;;;;;;2.90;1.67;;;;;;;;;;6137784;23;20154;-87
2024/04/02 19:13:09;;;;;;;2.30;1.40;;;;;;;;;;6150447;23;20185;-84
2024/04/02 19:15:36;;;;;;;2.07;1.50;;;;;;;;;;6154774;23;20203;-81
2024/04/02 19:18:06;;;;;;;4.50;1.57;;;;;;;;;;6152904;23;20157;-78
2024/04/02 19:20:35;;;;;;;3.40;1.50;;;;;;;;;;6152952;23;20154;-82
2024/04/02 19:23:02;;;;;;;3.87;1.60;;;;;;;;;;6152169;23;20182;-81
2024/04/02 19:25:29;;;;;;;3.80;1.50;;;;;;;;;;6113845;23;20651;-82
2024/04/02 19:27:57;;;;;;;3.93;1.60;;;;;;;;;;6138597;23;20162;-88
2024/04/02 19:30:28;;;;;;;3.07;1.47;;;8.70;99.90;;;;;;6149723;23;20164;-88
2024/04/02 19:33:03;;;;;;;2.80;1.43;;;;;;;;;;6145529;23;20181;-88
2024/04/02 19:35:31;;;;;;;3.13;1.63;;;;;;;;;;6147772;23;20154;-89
2024/04/02 19:38:03;;;;;;;2.63;1.60;;;;;;;;;;6126046;23;20209;-88
2024/04/02 19:40:29;;;;;;;1.90;1.60;;;;;;;;;;6151590;23;20158;-88
2024/04/02 19:42:56;;;;;;;3.17;1.73;;;;;;;;;;6124887;23;20262;-88
2024/04/02 19:45:22;;;;;;;3.13;1.53;;;;;;;;;;6125684;23;20180;-88
2024/04/02 19:47:50;;;;;;;2.60;1.50;;;;;;;;;;6150293;23;20162;-86
2024/04/02 19:50:16;;;;;;;3.83;1.40;;;;;;;;;;6125050;23;20174;-87
2024/04/02 19:52:43;;;;;;;2.27;1.40;;;;;;;;;;6149266;23;20162;-87
2024/04/02 19:55:11;;;;;;;3.77;1.40;;;;;;;;;;6150622;23;20212;-87
2024/04/02 20:00:29;;;;;;;4.27;1.60;;;;;;;;;;6151155;23;20217;-81
2024/04/02 20:02:55;;;;;;;4.50;1.70;;;;;;;;;;6154152;23;20237;-83
2024/04/02 20:05:23;;;;;;;3.80;1.60;;;;;;;;;;6154121;23;20156;-79
2024/04/02 20:07:49;;;;;;;3.20;1.73;;;;;;;;;;6154059;23;20135;-86
2024/04/02 20:10:21;;;;;;;4.67;1.60;;;;;;;;;;6141961;23;20182;-88
2024/04/02 20:12:50;;;;;;;4.77;1.50;;;;;;;;;;6136710;23;20218;-87
2024/04/02 20:15:21;;;;;;;3.27;1.80;;;;;;;;;;6109062;23;20172;-88
2024/04/02 20:17:47;;;;;;;4.83;2.00;;;;;;;;;;6109367;23;20229;-87
2024/04/02 20:20:18;;;;;;;2.63;1.60;;;;;;;;;;6135429;23;20213;-84
2024/04/02 20:22:48;;;;;;;4.03;1.70;;;;;;;;;;6143068;23;20174;-83
2024/04/02 20:25:17;;;;;;;2.43;1.67;;;;;;;;;;6114283;23;20235;-81
2024/04/02 20:27:45;;;;;;;4.30;1.40;;;;;;;;;;6110564;23;20174;-84
2024/04/02 20:30:12;;;;;;;3.03;1.40;;;;;;;;;;6136346;23;20193;-83
2024/04/02 20:32:38;;;;;;;4.80;1.33;;;9.50;99.90;;;;;;6144067;23;20245;-84
2024/04/02 20:35:06;;;;;;;2.60;1.50;;;9.30;99.90;;;;;;6115387;23;20170;-83
2024/04/02 20:37:33;;;;;;;2.90;1.47;;;;;;;;;;6112313;23;20181;-82
2024/04/02 20:40:00;;;;;;;2.97;1.70;;;;;;;;;;6138734;23;20186;-84
2024/04/02 20:42:26;;;;;;;2.40;1.30;;;;;;;;;;6135931;23;20208;-83
2024/04/02 20:44:54;;;;;;;3.10;1.27;;;8.40;99.90;;;;;;6111138;23;20166;-86
2024/04/02 20:47:21;;;;;;;3.80;1.30;;;8.30;99.90;;;;;;6136362;23;20261;-83
2024/04/02 20:49:49;;;;;;;5.50;1.40;;;;;;;;;;6137472;23;20193;-81
2024/04/02 20:52:15;;;;;;;2.67;1.20;;;8.10;99.90;;;;;;6138550;23;20166;-84
2024/04/02 20:57:24;;;;;;;2.73;1.40;;;;;;;;;;6140253;23;20173;-85
2024/04/02 20:59:50;;;;;;;3.37;1.40;;;;;;;;;;6112664;23;20580;-84
2024/04/02 21:02:18;;;;;;;3.17;1.40;;;7.60;99.90;;;;;;6139965;23;20201;-83
2024/04/02 21:04:46;;;;;;;3.03;1.53;;;7.50;99.90;;;;;;6139681;23;20333;-84
2024/04/02 21:07:14;;;;;;;5.50;1.50;;;;;;;;;;6139476;23;20185;-83
2024/04/02 21:09:40;;;;;;;3.63;1.90;;;;;;;;;;6139509;23;20555;-82
2024/04/02 21:12:08;;;;;;;2.60;1.40;;;7.00;99.90;;;;;;6115652;23;20175;-83
2024/04/02 21:14:34;;;;;;;1.97;1.50;;;;;;;;;;6142037;23;20178;-84
2024/04/02 21:17:01;;;;;;;4.27;2.00;;;;;;;;;;6141555;23;20162;-83
2024/04/02 21:19:30;;;;;;;2.60;1.70;;;;;;;;;;6140197;23;20194;-82
2024/04/02 21:21:57;;;;;;;4.00;1.80;;;;;;;;;;6141076;23;20240;-81
2024/04/02 21:24:23;;;;;;;2.10;1.40;;;6.80;99.90;;;;;;6142151;23;20662;-82
2024/04/02 21:26:50;;;;;;;3.87;1.40;;;;;;;;;;6142476;23;20214;-82
2024/04/02 21:29:16;;;;;;;1.53;1.30;;;6.80;99.90;;;;;;6115011;23;20194;-84
2024/04/02 21:31:44;;;;;;;4.90;1.40;;;6.80;99.90;;;;;;6112609;23;20178;-84
2024/04/02 21:34:10;;;;;;;3.87;1.83;;;6.70;99.90;;;;;;6110450;23;20230;-85
2024/04/02 21:36:38;;;;;;;3.97;2.07;;;6.50;99.90;;;;;;6109963;23;20170;-85
2024/04/02 21:39:05;;;;;;;3.07;1.70;;;;;;;;;;6110808;23;20212;-84
2024/04/02 21:41:32;;;;;;;2.60;1.50;;;;;;;;;;6136901;23;20170;-84
2024/04/02 21:43:58;;;;;;;2.23;1.60;;;;;;;;;;6110873;23;20170;-84
2024/04/02 21:46:25;;;;;;;3.77;1.33;;;6.70;99.90;;;;;;6110761;23;20186;-84
2024/04/02 21:48:51;;;;;;;3.83;1.37;;;;;;;;;;6135933;23;20399;-86
2024/04/02 21:51:18;;;;;;;4.97;1.50;;;;;;;;;;6136151;23;20193;-85
2024/04/02 21:53:46;;;;;;;2.67;1.40;;;;;;;;;;6136056;23;20171;-85
2024/04/02 21:56:13;;;;;;;5.07;1.53;;;;;;;;;;6135014;23;20211;-84
2024/04/02 21:58:39;;;;;;;2.23;1.03;;;7.70;99.90;;;;;;6109477;23;20664;-83
2024/04/02 22:01:06;;;;;;;4.53;1.37;;;7.70;99.90;;;;;;6109549;23;20170;-83
2024/04/02 22:03:32;;;;;;;3.23;1.20;;;;;;;;;;6136034;23;20202;-83
2024/04/02 22:06:00;;;;;;;3.77;1.50;;;7.90;99.90;;;;;;6137217;23;20245;-83
2024/04/02 22:08:27;;;;;;;3.50;1.37;;;7.80;99.90;;;;;;6136295;23;20193;-83
2024/04/02 22:10:56;;;;;;;2.27;1.30;;;7.80;99.90;;;;;;6110514;23;20170;-84
2024/04/02 22:13:22;;;;;;;3.30;1.50;;;;;;;;;;6135123;23;20241;-84
2024/04/02 22:15:50;;;;;;;2.80;1.30;;;;;;;;;;6133500;23;20166;-85
2024/04/02 22:18:16;;;;;;;2.40;1.30;;;;;;;;;;6134664;23;20172;-82
2024/04/02 22:20:43;;;;;;;2.30;1.47;;;7.40;99.90;;;;;;6133304;23;20190;-84
2024/04/02 22:23:10;;;;;;;2.37;1.57;;;7.50;99.90;;;;;;6133529;23;20181;-83
2024/04/02 22:25:37;;;;;;;2.87;1.70;;;;;;;;;;6135758;23;20174;-84
2024/04/02 22:28:05;;;;;;;1.97;1.23;;;;;;;;;;6137144;23;20166;-82
2024/04/02 22:30:32;;;;;;;3.07;1.23;;;7.30;99.90;;;;;;6136944;23;20192;-84
2024/04/02 22:32:59;;;;;;;4.03;1.40;;;;;;;;;;6137722;23;20169;-83
2024/04/02 22:35:27;;;;;;;2.60;1.27;;;7.10;99.90;;;;;;6136114;23;20177;-85
2024/04/02 22:37:53;;;;;;;4.93;1.70;;;7.00;99.90;;;;;;6135150;23;20262;-83
2024/04/02 22:40:20;;;;;;;3.70;1.60;;;;;;;;;;6136550;23;20186;-83
2024/04/02 22:42:49;;;;;;;2.40;1.40;;;;;;;;;;6136427;23;20182;-81
2024/04/02 22:45:17;;;;;;;4.07;1.63;;;;;;;;;;6135321;23;20162;-82
2024/04/02 22:47:44;;;;;;;4.37;1.57;;;;;;;;;;6136777;23;20162;-85
2024/04/02 22:50:11;;;;;;;2.80;1.13;;;;;;;;;;6135862;23;20285;-84
2024/04/02 22:52:37;;;;;;;2.83;1.40;;;;;;;;;;6135731;23;20166;-83
2024/04/02 22:55:04;;;;;;;4.83;1.70;;;6.80;99.90;;;;;;6109838;23;20170;-83
2024/04/02 22:57:30;;;;;;;2.67;1.27;;;6.90;99.90;;;;;;6135416;23;20176;-83
2024/04/02 22:59:58;;;;;;;2.93;1.57;;;;;;;;;;6109478;23;20249;-84
2024/04/02 23:02:25;;;;;;;2.57;1.30;;;7.00;99.90;;;;;;6135956;23;20362;-81
2024/04/02 23:04:52;;;;;;;2.10;1.20;;;;;;;;;;6110021;23;20182;-83
2024/04/02 23:07:18;;;;;;;2.83;1.00;;;6.90;99.90;;;;;;6136503;23;20232;-84
2024/04/02 23:09:45;;;;;;;4.57;1.30;;;6.80;99.90;;;;;;6135205;23;20182;-84
2024/04/02 23:12:11;;;;;;;2.43;1.30;;;;;;;;;;6109876;23;20633;-81
2024/04/02 23:14:39;;;;;;;2.67;1.20;;;;;;;;;;6136375;23;20228;-83
2024/04/02 23:17:05;;;;;;;2.20;1.17;;;;;;;;;;6135936;23;20162;-85
2024/04/02 23:19:34;;;;;;;2.77;1.37;;;6.80;99.90;;;;;;6112598;23;20186;-84
2024/04/02 23:22:03;;;;;;;3.87;1.20;;;7.00;99.90;;;;;;6138885;23;20178;-83
2024/04/02 23:24:36;;;;;;;3.77;1.43;;;;;;;;;;6136165;23;20492;-84
2024/04/02 23:27:03;;;;;;;2.47;1.10;;;7.00;99.90;;;;;;6109456;23;20280;-81
2024/04/02 23:29:30;;;;;;;2.20;1.20;;;;;;;;;;6108384;23;20241;-82
2024/04/02 23:31:56;;;;;;;3.90;1.60;;;;;;;;;;6133848;23;20220;-84
2024/04/02 23:34:23;;;;;;;2.23;1.30;;;;;;;;;;6108995;23;20177;-83
2024/04/02 23:36:51;;;;;;;2.20;1.33;;;;;;;;;;6135397;23;20166;-82
2024/04/02 23:39:18;;;;;;;2.20;1.43;;;;;;;;;;6135261;23;20660;-83
2024/04/02 23:41:44;;;;;;;4.83;1.30;;;;;;;;;;6138840;23;20229;-84
2024/04/02 23:44:12;;;;;;;3.20;1.17;;;;;;;;;;6151107;23;20155;-83
2024/04/02 23:46:38;;;;;;;2.03;1.23;;;;;;;;;;6125166;23;20178;-85
2024/04/02 23:49:05;;;;;;;2.57;1.10;;;;;;;;;;6147045;23;20665;-85
2024/04/02 23:51:31;;;;;;;3.90;1.40;;;;;;;;;;6141319;23;20160;-83
2024/04/02 23:54:02;;;;;;;2.30;1.10;;;7.50;99.90;;;;;;6140435;23;20170;-83
2024/04/02 23:56:28;;;;;;;2.80;1.10;;;7.40;99.90;;;;;;6136211;23;20232;-84
2024/04/02 23:58:55;;;;;;;2.23;1.20;;;7.40;99.90;;;;;;6109999;23;20480;-85
